Time;durP1;ratioP1;P1;durP2;ratioP2;P2;SDS_P1;SDS_P2;PMS_P1;PMS_P2;Temp;Humidity;BMP_temperature;BMP_pressure;BME280_temperature;BME280_humidity;BME280_pressure;Samples;Min_cycle;Max_cycle;Signal;HPM_P1;HPM_P2
2021/05/28 00:01:19;;;;;;;20.77;9.20;;;8.60;99.90;;;-143.32;100.00;45536.69;6186862;23;20421;-91
2021/05/28 00:03:55;;;;;;;26.20;9.53;;;8.70;99.90;;;-143.32;100.00;45280.78;6187737;23;20413;-91
2021/05/28 00:06:53;;;;;;;22.23;9.93;;;8.60;99.90;;;-143.32;100.00;45292.88;6188045;23;20437;-90
2021/05/28 00:09:24;;;;;;;16.87;8.90;;;8.60;99.90;;;-143.32;100.00;45647.50;6187014;23;20721;-92
2021/05/28 00:11:51;;;;;;;21.63;9.10;;;8.70;99.90;;;-143.32;100.00;46111.00;6187477;23;20465;-92
2021/05/28 00:14:48;;;;;;;20.83;8.70;;;8.50;99.90;;;-143.32;100.00;46576.59;6187415;23;20460;-94
2021/05/28 00:17:26;;;;;;;30.13;10.00;;;8.70;99.90;;;-143.32;100.00;46905.16;6188564;23;20496;-91
2021/05/28 00:20:20;;;;;;;17.53;10.07;;;8.60;99.90;;;-143.32;100.00;46983.78;6187770;23;20406;-91
2021/05/28 00:25:57;;;;;;;21.43;9.57;;;8.60;99.90;;;-143.32;100.00;47014.00;6185923;23;20422;-91
2021/05/28 00:28:53;;;;;;;26.43;11.00;;;8.60;99.90;;;-143.32;100.00;46905.16;6188069;23;20383;-92
2021/05/28 00:31:49;;;;;;;19.17;9.83;;;8.60;99.90;;;-143.32;100.00;46792.28;6187791;23;20418;-92
2021/05/28 00:34:28;;;;;;;17.37;9.70;;;8.70;99.90;;;-143.32;100.00;46796.31;6179592;23;20405;-92
2021/05/28 00:37:38;;;;;;;20.80;10.53;;;8.70;99.90;;;-143.32;100.00;46834.59;6187208;23;20505;-91
2021/05/28 00:40:25;;;;;;;27.60;10.50;;;8.70;99.90;;;-143.32;100.00;46747.94;6186658;23;20406;-91
2021/05/28 00:42:59;;;;;;;27.10;11.17;;;8.70;99.90;;;-143.32;100.00;46451.63;6187392;23;20481;-93
2021/05/28 00:45:55;;;;;;;30.83;10.63;;;8.70;99.90;;;-143.32;100.00;46645.13;6186849;23;20370;-91
2021/05/28 00:49:02;;;;;;;;;;;;;;;;;;;;;
2021/05/28 00:52:13;;;;;;;25.20;10.30;;;8.60;99.90;;;-143.32;100.00;47003.94;6186912;23;20390;-90
2021/05/28 01:03:36;;;;;;;24.87;10.50;;;8.50;99.90;;;-143.32;100.00;47201.50;6162139;23;20421;-91
2021/05/28 01:25:28;;;;;;;32.80;11.27;;;8.10;99.90;;;-143.32;100.00;47449.47;5935665;23;20419;-94
2021/05/28 02:46:20;;;;;;;28.40;11.80;;;7.40;99.90;;;-143.32;100.00;48312.50;5865078;24;20448;-93
2021/05/28 02:49:59;;;;;;;25.03;12.53;;;7.20;99.90;;;-143.32;100.00;48225.78;6095620;23;20419;-94
2021/05/28 03:07:44;;;;;;;45.13;18.93;;;7.90;99.90;;;-143.32;100.00;48217.72;6186195;23;20369;-93
2021/05/28 03:10:24;;;;;;;46.23;19.30;;;7.90;99.90;;;-143.32;100.00;48147.16;6186083;23;20445;-93
2021/05/28 03:25:43;;;;;;;;;;;;;;;;;;;;;
2021/05/28 05:46:52;;;;;;;43.83;25.30;;;8.40;99.90;;;-143.32;100.00;48683.59;5818679;24;20479;-91
2021/05/28 05:49:23;;;;;;;60.13;31.20;;;8.70;99.90;;;-143.32;100.00;48715.88;5935401;23;20437;-91
2021/05/28 05:51:54;;;;;;;59.47;34.13;;;8.70;99.90;;;-143.32;100.00;48732.00;5981478;24;20416;-91
2021/05/28 05:54:28;;;;;;;73.70;37.90;;;8.70;99.90;;;-143.32;100.00;48713.84;6034550;23;20418;-89
2021/05/28 05:56:58;;;;;;;87.63;41.00;;;8.60;99.90;;;-143.32;100.00;48770.31;6152854;23;20454;-90
2021/05/28 06:03:11;;;;;;;106.73;48.80;;;8.50;99.90;;;-143.32;100.00;48808.66;6156647;23;20451;-91
2021/05/28 06:05:39;;;;;;;145.17;54.60;;;8.50;99.90;;;-143.32;100.00;48758.22;6156317;23;20407;-88
2021/05/28 06:08:09;;;;;;;165.20;60.07;;;8.50;99.90;;;-143.32;100.00;48830.84;6156292;23;20634;-91
2021/05/28 06:10:41;;;;;;;180.50;60.33;;;8.30;99.90;;;-143.32;100.00;48814.69;6158114;23;20461;-91
2021/05/28 06:17:04;;;;;;;89.57;39.80;;;8.60;99.90;;;-143.32;100.00;48766.28;6186796;23;20857;-92
2021/05/28 06:19:31;;;;;;;69.87;36.97;;;8.80;99.90;;;-143.32;100.00;48774.38;6186893;23;20429;-91
2021/05/28 06:22:04;;;;;;;61.33;34.90;;;8.80;99.90;;;-143.32;100.00;48824.78;6188323;23;20416;-93
2021/05/28 06:28:12;;;;;;;85.23;40.07;;;8.80;99.90;;;-143.32;100.00;48885.28;6186580;23;20369;-93
2021/05/28 06:30:41;;;;;;;83.03;43.20;;;8.80;99.90;;;-143.32;100.00;48881.25;6186799;23;20497;-90
2021/05/28 06:33:09;;;;;;;83.30;40.13;;;8.80;99.90;;;-143.32;100.00;48955.91;6186384;23;20409;-93
2021/05/28 06:35:38;;;;;;;84.37;40.13;;;8.70;99.90;;;-143.32;100.00;48941.78;6188097;23;20718;-93
2021/05/28 06:38:09;;;;;;;89.70;40.37;;;8.80;99.90;;;-143.32;100.00;48859.06;6157036;23;20976;-91
2021/05/28 06:40:39;;;;;;;91.00;42.07;;;8.90;99.90;;;-143.32;100.00;48939.75;6157671;23;20419;-91
2021/05/28 06:43:13;;;;;;;71.17;37.77;;;9.00;99.90;;;-143.32;100.00;48953.88;6157705;23;20457;-93
2021/05/28 07:05:28;;;;;;;;;;;;;;;;;;;;;
2021/05/28 07:15:58;;;;;;;;;;;;;;;;;;;;;
2021/05/28 07:19:33;;;;;;;94.63;46.27;;;9.60;99.90;;;-143.32;100.00;49113.22;5868009;24;20466;-94
2021/05/28 07:22:18;;;;;;;146.83;63.27;;;9.50;99.90;;;-143.32;100.00;49149.53;6053943;23;20466;-92
2021/05/28 07:24:54;;;;;;;115.60;56.17;;;9.30;99.90;;;-143.32;100.00;49121.28;6129872;23;20403;-93
2021/05/28 07:31:06;;;;;;;101.83;52.90;;;9.40;99.90;;;-143.32;100.00;49127.34;6137544;23;20375;-91
2021/05/28 07:33:33;;;;;;;112.43;54.17;;;9.40;99.90;;;-143.32;100.00;49105.16;6137454;23;20790;-92
2021/05/28 07:36:23;;;;;;;101.20;49.70;;;9.50;99.90;;;-143.32;100.00;49123.31;6143775;23;20422;-95
2021/05/28 07:38:51;;;;;;;83.53;46.17;;;9.60;99.90;;;-143.32;100.00;49137.44;6141898;23;20440;-94
2021/05/28 07:41:22;;;;;;;78.60;45.33;;;9.60;99.90;;;-143.32;100.00;49113.22;6136322;23;20895;-94
2021/05/28 07:43:49;;;;;;;78.20;44.30;;;9.60;99.90;;;-143.32;100.00;49062.81;6130236;23;20867;-91
2021/05/28 07:46:20;;;;;;;71.03;39.27;;;9.80;99.90;;;-143.32;100.00;49105.16;6131220;23;20404;-93
2021/05/28 07:48:47;;;;;;;63.07;38.87;;;10.00;99.90;;;-143.32;100.00;49089.03;6136211;23;20384;-94
2021/05/28 07:51:15;;;;;;;56.13;33.50;;;10.20;99.90;;;-143.32;100.00;49258.47;6134207;23;20443;-90
2021/05/28 07:53:43;;;;;;;42.43;29.30;;;10.20;99.90;;;-143.32;100.00;49286.72;6135088;23;20863;-92
2021/05/28 07:56:25;;;;;;;45.97;29.80;;;10.40;99.90;;;-143.32;100.00;49268.56;6134484;23;20396;-95
2021/05/28 07:58:56;;;;;;;46.80;31.60;;;10.20;99.90;;;-143.32;100.00;49246.38;6133938;23;20499;-94
2021/05/28 08:01:23;;;;;;;46.93;31.37;;;10.30;99.90;;;-143.32;100.00;49236.28;6133770;23;20411;-94
2021/05/28 08:03:50;;;;;;;46.03;29.60;;;10.50;99.90;;;-143.32;100.00;49240.31;6137213;23;20471;-92
2021/05/28 08:06:24;;;;;;;51.33;31.00;;;10.80;99.90;;;-143.32;100.00;49161.63;6132032;23;20408;-93
2021/05/28 08:08:51;;;;;;;40.83;28.00;;;11.00;99.90;;;-143.32;100.00;49298.81;6130665;23;20427;-94
2021/05/28 08:11:19;;;;;;;43.13;28.90;;;11.10;99.90;;;-143.32;100.00;49319.00;6129923;23;20914;-94
2021/05/28 08:13:47;;;;;;;56.00;34.67;;;11.30;99.90;;;-143.32;100.00;49379.50;6128663;23;20403;-93
2021/05/28 08:16:16;;;;;;;64.53;38.40;;;11.40;99.90;;;-143.32;100.00;49379.50;6128059;23;20896;-93
2021/05/28 08:18:43;;;;;;;65.83;40.13;;;11.60;99.90;;;-143.32;100.00;49266.53;6128890;23;20483;-93
2021/05/28 08:21:12;;;;;;;59.97;38.60;;;11.90;99.90;;;-143.32;99.02;49347.22;6129858;23;20431;-92
2021/05/28 08:23:42;;;;;;;60.77;39.30;;;12.20;1.00;;;-143.32;97.84;49391.59;6128522;23;20428;-94
2021/05/28 08:26:10;;;;;;;51.60;33.43;;;12.40;1.00;;;-143.32;96.86;49458.19;6130009;23;20408;-94
2021/05/28 08:28:44;;;;;;;43.00;29.80;;;12.70;1.00;;;-143.32;97.08;49339.16;6128915;23;20491;-92
2021/05/28 08:31:11;;;;;;;39.73;28.70;;;13.10;1.00;;;-143.32;93.75;49433.97;6130541;23;20852;-93
2021/05/28 08:33:39;;;;;;;30.60;23.07;;;13.70;99.90;;;-143.32;91.54;49700.28;6131644;23;20776;-91
2021/05/28 08:36:07;;;;;;;34.80;24.00;;;13.70;1.00;;;-143.32;93.29;49686.16;6132060;23;20423;-92
2021/05/28 08:38:36;;;;;;;31.90;23.30;;;13.60;74.20;;;-143.32;93.13;49772.91;6132719;23;20447;-93
2021/05/28 08:41:03;;;;;;;31.67;22.53;;;13.50;99.90;;;-143.32;92.60;49853.59;6133838;23;20435;-92
2021/05/28 08:43:31;;;;;;;33.03;23.20;;;13.40;17.90;;;-143.32;93.15;49940.38;6129546;23;20408;-94
2021/05/28 08:46:01;;;;;;;43.63;23.70;;;13.10;81.30;;;-143.32;94.24;49918.16;6127919;23;20916;-92
2021/05/28 08:48:28;;;;;;;36.33;23.83;;;13.00;99.90;;;-143.32;94.07;49900.00;6128380;23;20408;-93
2021/05/28 08:50:55;;;;;;;28.10;20.30;;;13.10;99.90;;;-143.32;93.54;49867.72;6132751;23;20400;-93
2021/05/28 08:53:24;;;;;;;27.43;20.93;;;13.50;99.90;;;-143.32;93.30;49843.53;6143252;23;20416;-94
2021/05/28 08:55:52;;;;;;;25.13;19.60;;;13.70;99.90;;;-143.32;92.76;49924.22;6141781;23;20408;-92
2021/05/28 08:58:28;;;;;;;31.33;21.93;;;13.60;39.50;;;-143.32;93.82;49887.91;6140156;23;20460;-94
2021/05/28 09:01:00;;;;;;;33.93;21.43;;;13.60;99.90;;;-143.32;92.06;49966.59;6140043;23;20410;-93
2021/05/28 09:07:22;;;;;;;31.13;20.77;;;14.10;1.00;;;-143.32;87.33;49910.09;6134510;23;20383;-93
2021/05/28 09:10:09;;;;;;;26.47;19.20;;;15.00;1.00;;;-143.32;83.57;50008.97;6131899;23;20389;-94
2021/05/28 09:12:38;;;;;;;26.57;18.17;;;15.80;99.90;;;-143.32;81.89;50144.16;6127690;23;20510;-95
2021/05/28 09:15:20;;;;;;;19.40;14.90;;;16.00;99.90;;;-143.32;81.79;50315.66;6128706;23;20397;-92
2021/05/28 09:17:49;;;;;;;17.63;14.80;;;15.90;99.90;;;-143.32;84.45;50416.56;6128211;23;20439;-92
2021/05/28 09:20:19;;;;;;;22.17;15.60;;;15.30;99.90;;;-143.32;84.34;50370.16;6127816;23;20452;-89
2021/05/28 09:22:46;;;;;;;18.37;13.87;;;15.10;99.90;;;-143.32;81.80;50555.81;6127490;23;20456;-94
2021/05/28 09:25:13;;;;;;;24.73;15.50;;;15.00;99.90;;;-143.32;83.93;50505.34;6128304;23;20458;-94
2021/05/28 09:27:45;;;;;;;20.47;14.03;;;14.90;99.90;;;-143.32;83.57;50398.41;6128116;23;20738;-91
2021/05/28 09:30:18;;;;;;;17.27;12.87;;;15.40;99.90;;;-143.32;83.13;50547.75;6127604;23;20884;-91
2021/05/28 09:32:51;;;;;;;24.73;12.70;;;15.30;99.90;;;-143.32;84.51;50475.09;6127649;23;20475;-92
2021/05/28 09:35:20;;;;;;;15.17;11.70;;;15.40;99.90;;;-143.32;83.19;50501.31;6128123;23;20423;-90
2021/05/28 09:37:51;;;;;;;19.93;10.30;;;15.40;99.90;;;-143.32;82.82;50511.41;6127857;23;20591;-93
2021/05/28 09:40:20;;;;;;;12.67;9.17;;;15.50;99.90;;;-143.32;80.28;50519.47;6127375;23;20389;-93
2021/05/28 09:42:52;;;;;;;14.13;10.40;;;15.80;99.90;;;-143.32;80.20;50515.44;6127008;23;20416;-92
2021/05/28 09:45:29;;;;;;;14.70;10.30;;;16.00;99.90;;;-143.32;81.52;50547.75;6126652;23;20471;-94
2021/05/28 09:47:58;;;;;;;14.90;7.67;;;16.00;99.90;;;-143.32;78.65;50487.19;6126790;23;20471;-95
2021/05/28 09:50:33;;;;;;;8.97;6.57;;;16.50;99.90;;;-143.32;76.74;50551.78;6127194;23;20408;-91
2021/05/28 09:53:01;;;;;;;9.10;6.03;;;16.70;99.90;;;-143.32;76.67;50588.09;6129498;23;20427;-92
2021/05/28 09:55:30;;;;;;;10.00;6.73;;;16.90;99.90;;;-143.32;76.43;50743.50;6134456;23;20408;-91
2021/05/28 09:57:58;;;;;;;9.63;6.13;;;16.70;99.90;;;-143.32;80.83;50707.16;6136214;23;20448;-94
2021/05/28 10:00:29;;;;;;;9.10;6.40;;;16.20;99.90;;;-143.32;78.66;50854.50;6128800;23;20689;-94
2021/05/28 10:03:13;;;;;;;7.50;6.47;;;15.90;99.90;;;-143.32;79.94;50838.34;6128947;23;20400;-93
2021/05/28 10:05:43;;;;;;;12.97;6.30;;;15.70;99.90;;;-143.32;80.21;50850.44;6127802;23;20408;-92
2021/05/28 10:08:12;;;;;;;11.77;7.20;;;15.70;99.90;;;-143.32;80.81;50763.66;6128773;23;20442;-92
2021/05/28 10:10:41;;;;;;;9.37;6.20;;;15.90;99.90;;;-143.32;79.26;50818.16;6127620;23;20455;-94
2021/05/28 10:13:11;;;;;;;9.00;6.40;;;15.80;99.90;;;-143.32;79.73;50822.19;6128517;23;20400;-93
2021/05/28 10:15:41;;;;;;;17.57;6.47;;;15.80;99.90;;;-143.32;80.92;50826.22;6129420;23;20418;-93
2021/05/28 10:18:08;;;;;;;8.60;6.23;;;15.80;99.90;;;-143.32;81.12;50832.28;6127478;23;20454;-91
2021/05/28 10:20:37;;;;;;;9.13;6.93;;;15.80;99.90;;;-143.32;79.45;50898.88;6127546;23;20487;-91
2021/05/28 10:23:09;;;;;;;8.57;5.83;;;15.80;99.90;;;-143.32;77.04;51050.25;6129422;23;20408;-92
2021/05/28 10:25:39;;;;;;;12.67;7.10;;;15.60;99.90;;;-143.32;80.23;50993.75;6129192;23;20396;-91
2021/05/28 10:28:11;;;;;;;8.70;6.40;;;15.40;99.90;;;-143.32;80.84;50943.28;6130085;23;20450;-92
2021/05/28 10:30:42;;;;;;;8.27;6.80;;;15.50;99.90;;;-143.32;79.07;50904.94;6131878;23;20380;-94
2021/05/28 10:33:20;;;;;;;9.40;7.37;;;15.80;99.90;;;-143.32;74.32;51052.28;6130034;23;20396;-92
2021/05/28 10:35:54;;;;;;;8.50;6.40;;;16.00;99.90;;;-143.32;74.15;51108.78;6129659;23;20376;-92
2021/05/28 10:38:48;;;;;;;7.97;6.10;;;15.90;60.10;;;-143.32;71.99;51157.22;6130755;23;20784;-96
2021/05/28 10:41:40;;;;;;;9.77;6.90;;;15.90;9.40;;;-143.32;73.99;51133.00;6130123;23;20389;-94
2021/05/28 10:44:13;;;;;;;7.43;6.13;;;15.70;1.00;;;-143.32;72.57;51217.78;6130813;23;20911;-93
2021/05/28 10:46:57;;;;;;;7.23;6.07;;;15.80;1.00;;;-143.32;71.89;51235.94;6129199;23;20423;-92
2021/05/28 10:49:43;;;;;;;8.47;6.23;;;15.80;1.00;;;-143.32;70.87;51248.06;6141598;23;20902;-92
2021/05/28 10:52:37;;;;;;;8.93;5.70;;;15.80;1.00;;;-143.32;68.30;51348.97;6139503;23;20434;-95
2021/05/28 10:55:13;;;;;;;7.70;6.17;;;15.70;1.00;;;-143.32;70.99;51304.56;6133305;23;20408;-94
2021/05/28 10:57:53;;;;;;;6.57;5.20;;;15.80;1.00;;;-143.32;72.20;51229.91;6136313;23;20431;-92
2021/05/28 11:03:00;;;;;;;5.47;4.13;;;16.20;1.00;;;-143.32;69.65;51355.03;6144008;23;20427;-94
2021/05/28 11:06:22;;;;;;;5.90;5.20;;;16.10;1.00;;;-143.32;70.04;51262.19;6146318;23;20383;-94
2021/05/28 11:12:52;;;;;;;5.53;4.43;;;16.30;1.00;;;-143.32;69.17;51304.56;6179883;23;20416;-94
2021/05/28 11:15:44;;;;;;;;;;;;;;;;;;;;;
2021/05/28 11:18:45;;;;;;;7.00;4.00;;;16.20;1.00;;;-143.32;65.96;51524.59;6169695;23;20435;-93
2021/05/28 11:25:53;;;;;;;20.93;5.10;;;15.80;1.00;;;-143.32;65.81;51548.81;6171606;23;20370;-94
2021/05/28 11:28:22;;;;;;;4.60;3.60;;;16.00;1.00;;;-143.32;66.42;51470.09;6172845;23;20481;-93
2021/05/28 11:30:54;;;;;;;5.73;3.63;;;16.20;1.00;;;-143.32;66.87;51457.97;6162087;23;20912;-93
2021/05/28 11:34:52;;;;;;;4.13;3.70;;;16.40;1.00;;;-143.32;67.30;51464.03;6158868;23;20490;-89
2021/05/28 11:42:23;;;;;;;4.17;3.50;;;16.50;1.00;;;-143.32;66.54;51510.47;5943985;24;20434;-95
2021/05/28 11:53:10;;;;;;;5.43;4.20;;;16.80;1.00;;;-143.32;66.17;51625.53;6092330;23;20413;-94
2021/05/28 11:56:29;;;;;;;7.80;2.93;;;16.60;1.00;;;-143.32;56.96;51797.13;6080745;23;20549;-94
2021/05/28 11:58:59;;;;;;;5.60;3.10;;;16.60;1.00;;;-143.32;56.28;51849.59;6076836;23;20477;-95
2021/05/28 12:01:51;;;;;;;3.40;2.87;;;16.70;1.00;;;-143.32;55.25;51910.19;6153029;23;20455;-94
2021/05/28 12:04:58;;;;;;;7.00;2.70;;;16.90;1.00;;;-143.32;53.71;52013.13;6157003;23;20489;-94
2021/05/28 12:08:29;;;;;;;7.23;3.10;;;17.10;1.00;;;-143.32;57.94;51898.06;6160688;23;20415;-92
2021/05/28 12:22:31;;;;;;;5.90;3.30;;;17.00;1.00;;;-143.32;59.43;51960.66;5923518;24;20407;-91
2021/05/28 12:25:29;;;;;;;8.57;4.20;;;17.20;1.00;;;-143.32;59.87;52031.31;6162836;23;20483;-91
2021/05/28 12:31:50;;;;;;;2.93;2.70;;;17.30;1.00;;;-143.32;53.71;52213.00;6133515;23;20433;-92
2021/05/28 12:52:53;;;;;;;4.17;2.97;;;18.00;1.00;;;-143.32;48.43;52283.69;5981583;24;20392;-86
2021/05/28 13:41:56;;;;;;;3.33;2.40;;;18.80;20.50;;;-143.32;51.02;52418.97;6132349;23;20460;31
2021/05/28 13:48:25;;;;;;;4.13;2.97;;;18.60;1.00;;;-143.32;47.32;52588.56;6128105;23;20375;-90
2021/05/28 13:51:00;;;;;;;4.50;3.20;;;18.20;1.00;;;-143.32;51.06;52633.00;6127812;23;20393;-90
2021/05/28 13:53:30;;;;;;;2.87;2.60;;;17.70;1.00;;;-143.32;50.34;52618.84;6132485;23;20426;-89
2021/05/28 13:55:57;;;;;;;3.70;2.93;;;17.60;1.00;;;-143.32;49.69;52620.88;6135968;23;20385;-89
2021/05/28 13:58:28;;;;;;;8.03;2.50;;;17.60;1.00;;;-143.32;51.06;52540.09;6130542;23;20447;-92
2021/05/28 14:00:57;;;;;;;2.50;2.30;;;17.80;1.00;;;-143.32;50.33;52608.75;6128063;23;20483;-91
2021/05/28 14:03:26;;;;;;;2.90;2.50;;;17.80;1.00;;;-143.32;51.66;52618.84;6127544;23;20412;-91
2021/05/28 14:06:23;;;;;;;5.03;2.20;;;17.80;1.00;;;-143.32;48.71;52653.19;6128193;23;20485;-91
2021/05/28 14:09:51;;;;;;;3.37;2.37;;;17.80;1.00;;;-143.32;49.03;52687.50;6130192;23;20372;-92
2021/05/28 14:18:45;;;;;;;1.80;1.70;;;18.10;61.50;;;-143.32;45.97;52748.09;6067941;23;20450;-92
2021/05/28 14:21:31;;;;;;;1.83;1.73;;;18.00;18.60;;;-143.32;44.43;52746.06;6073175;23;20421;-91
2021/05/28 14:24:12;;;;;;;1.90;1.80;;;18.10;58.50;;;-143.32;43.15;52820.78;6131161;23;20400;-92
2021/05/28 14:30:27;;;;;;;1.97;1.80;;;18.00;74.30;;;-143.32;44.50;52766.25;6129788;23;20371;-91
2021/05/28 14:33:24;;;;;;;1.77;1.67;;;18.20;99.90;;;-143.32;43.75;52816.75;6129813;23;20562;-90
2021/05/28 14:35:55;;;;;;;3.83;2.33;;;18.30;68.80;;;-143.32;44.23;52756.16;6127994;23;20910;-92
2021/05/28 14:38:31;;;;;;;2.50;1.73;;;18.40;99.90;;;-143.32;43.81;52800.59;6130118;23;20451;-93
2021/05/28 14:44:20;;;;;;;7.73;2.17;;;18.30;99.90;;;-143.32;43.91;52818.78;6149254;23;20426;-91
2021/05/28 14:46:55;;;;;;;2.40;1.90;;;18.30;99.90;;;-143.32;41.62;52933.88;6158761;23;20905;-92
2021/05/28 14:50:00;;;;;;;;;;;;;;;;;;;;;
2021/05/28 14:52:42;;;;;;;3.97;1.73;;;18.10;99.90;;;-143.32;42.15;52933.88;6156905;23;20449;-91
2021/05/28 14:55:10;;;;;;;6.07;1.90;;;18.10;99.90;;;-143.32;42.11;52927.81;6156771;23;20430;-93
2021/05/28 14:57:41;;;;;;;2.70;1.80;;;18.10;99.90;;;-143.32;41.69;52931.84;6157225;23;20951;-91
2021/05/28 15:00:18;;;;;;;2.30;2.10;;;18.20;99.90;;;-143.32;41.21;52962.16;6157858;23;20403;-91
2021/05/28 15:07:19;;;;;;;1.97;1.77;;;18.10;1.00;;;-143.32;41.50;53004.56;6009353;23;20477;-86
2021/05/28 15:09:50;;;;;;;1.93;1.73;;;18.10;1.00;;;-143.32;42.56;52970.22;6010588;23;20422;-90
2021/05/28 15:12:20;;;;;;;6.70;1.57;;;18.10;1.00;;;-143.32;41.88;53018.69;6010556;23;20423;-88
2021/05/28 15:14:50;;;;;;;3.93;1.70;;;18.20;99.90;;;-143.32;42.25;52994.47;6010613;23;20432;-88
2021/05/28 15:21:00;;;;;;;1.63;1.50;;;18.40;1.00;;;-143.32;41.64;52972.25;6157664;23;20927;-87
2021/05/28 15:23:31;;;;;;;1.73;1.63;;;18.60;1.00;;;-143.32;42.19;52982.34;6157350;23;20437;-88
2021/05/28 15:25:59;;;;;;;1.80;1.70;;;18.60;1.00;;;-143.32;43.75;52929.84;6157603;23;20430;-86
2021/05/28 15:28:25;;;;;;;1.77;1.50;;;18.60;1.00;;;-143.32;42.57;52946.00;6157827;23;20877;-87
2021/05/28 15:30:52;;;;;;;2.67;1.77;;;18.80;1.00;;;-143.32;42.83;52929.84;6158605;23;20458;-87
2021/05/28 15:33:21;;;;;;;1.80;1.70;;;18.80;43.00;;;-143.32;41.37;52970.22;6160735;23;20411;-87
2021/05/28 15:35:48;;;;;;;2.10;1.90;;;18.80;1.00;;;-143.32;41.50;52978.31;6161498;23;20415;-87
2021/05/28 15:38:15;;;;;;;2.13;2.00;;;18.90;1.00;;;-143.32;43.47;52901.56;6159569;23;20450;-87
2021/05/28 15:40:45;;;;;;;3.50;1.90;;;19.00;99.90;;;-143.32;39.59;53030.81;6157661;23;20403;-86
2021/05/28 15:43:13;;;;;;;2.00;1.63;;;19.00;99.90;;;-143.32;41.24;53016.69;6157794;23;20403;-86
2021/05/28 15:45:40;;;;;;;3.37;2.00;;;18.90;1.00;;;-143.32;44.08;52948.00;6157358;23;20396;-85
2021/05/28 15:48:10;;;;;;;3.23;2.30;;;19.00;99.90;;;-143.32;43.05;52984.38;6157366;23;20450;-90
2021/05/28 15:50:38;;;;;;;3.00;1.70;;;19.00;99.90;;;-143.32;41.58;53010.63;6156869;23;20430;-90
2021/05/28 15:56:45;;;;;;;2.20;2.00;;;19.00;99.90;;;-143.32;40.91;53065.13;6157694;23;20882;-88
2021/05/28 15:59:13;;;;;;;1.60;1.50;;;18.90;99.90;;;-143.32;40.98;53101.50;6158386;23;20442;-88
2021/05/28 16:01:45;;;;;;;2.33;1.97;;;18.80;99.90;;;-143.32;41.68;53073.22;6157446;23;20502;-87
2021/05/28 16:04:14;;;;;;;4.93;2.00;;;18.70;99.90;;;-143.32;41.48;53123.72;6157697;23;20435;-87
2021/05/28 16:06:41;;;;;;;2.80;1.77;;;18.60;99.90;;;-143.32;41.83;53077.25;6157359;23;20395;-86
2021/05/28 16:09:11;;;;;;;2.47;1.90;;;18.60;99.90;;;-143.32;42.90;53061.09;6157073;23;20407;-86
2021/05/28 16:11:37;;;;;;;3.60;1.90;;;18.60;99.90;;;-143.32;41.81;53091.41;6157290;23;20448;-86
2021/05/28 16:14:04;;;;;;;2.00;1.90;;;18.70;99.90;;;-143.32;41.51;53156.03;6157514;23;20410;-92
2021/05/28 16:16:32;;;;;;;2.97;1.90;;;18.60;99.90;;;-143.32;43.69;53069.19;6157597;23;20411;-91
2021/05/28 16:18:59;;;;;;;1.90;1.70;;;18.60;99.90;;;-143.32;43.58;53109.56;6157829;23;20513;-92
2021/05/28 16:21:45;;;;;;;1.93;1.70;;;18.50;99.90;;;-143.32;42.67;53135.81;6157157;23;20399;-92
2021/05/28 16:24:12;;;;;;;2.90;2.07;;;18.50;99.90;;;-143.32;42.57;53156.03;6157327;23;20399;-92
2021/05/28 16:26:41;;;;;;;2.27;2.00;;;18.40;99.90;;;-143.32;42.77;53151.97;6158350;23;20874;-92
2021/05/28 16:29:09;;;;;;;2.33;1.63;;;18.40;99.90;;;-143.32;42.35;53182.28;6164793;23;20767;-86
2021/05/28 16:31:37;;;;;;;5.90;2.03;;;18.30;99.90;;;-143.32;42.09;53208.53;6157285;23;20728;-86
2021/05/28 16:34:04;;;;;;;1.90;1.80;;;18.30;99.90;;;-143.32;43.14;53230.75;6156988;23;20399;-86
2021/05/28 16:36:32;;;;;;;3.13;1.60;;;18.20;99.90;;;-143.32;43.62;53198.44;6157856;23;20407;-87
2021/05/28 16:39:00;;;;;;;2.80;2.00;;;18.20;99.90;;;-143.32;42.83;53230.75;6157723;23;20501;-86
2021/05/28 16:41:28;;;;;;;2.47;1.93;;;18.20;99.90;;;-143.32;43.25;53240.84;6157095;23;20413;-87
2021/05/28 16:43:55;;;;;;;1.80;1.70;;;18.20;99.90;;;-143.32;42.49;53208.53;6157794;23;20482;-91
2021/05/28 16:46:23;;;;;;;1.73;1.63;;;18.10;99.90;;;-143.32;42.33;53283.25;6162037;23;20889;-92
2021/05/28 16:48:50;;;;;;;3.63;1.90;;;18.10;99.90;;;-143.32;43.47;53259.03;6158087;23;20708;-90
2021/05/28 16:51:17;;;;;;;2.10;1.90;;;18.00;99.90;;;-143.32;42.03;53248.94;6156851;23;20406;-89
2021/05/28 16:53:44;;;;;;;2.83;1.93;;;18.00;99.90;;;-143.32;43.79;53267.09;6156714;23;20916;-88
2021/05/28 16:56:11;;;;;;;2.33;1.83;;;17.90;99.90;;;-143.32;42.09;53279.22;6156777;23;20426;-87
2021/05/28 16:58:37;;;;;;;1.97;1.87;;;17.90;99.90;;;-143.32;42.36;53305.47;6156925;23;20451;-88
2021/05/28 17:01:06;;;;;;;4.67;2.60;;;17.80;99.90;;;-143.32;42.05;53307.50;6156914;23;20459;-88
2021/05/28 17:03:34;;;;;;;2.73;2.50;;;17.90;99.90;;;-143.32;40.25;53337.78;6156375;23;20893;-88
2021/05/28 17:06:01;;;;;;;2.70;1.90;;;17.90;99.90;;;-143.32;40.20;53374.16;6156958;23;20715;-89
2021/05/28 17:08:28;;;;;;;1.80;1.70;;;17.90;99.90;;;-143.32;40.36;53416.56;6156934;23;20407;-93
2021/05/28 17:10:55;;;;;;;2.80;2.17;;;17.80;99.90;;;-143.32;40.94;53347.88;6156518;23;20465;-91
2021/05/28 17:13:22;;;;;;;1.57;1.47;;;17.80;99.90;;;-143.32;41.10;53368.09;6157013;23;20411;-89
2021/05/28 17:16:13;;;;;;;;;;;;;;;;;;;;;
2021/05/28 17:18:40;;;;;;;3.87;2.00;;;17.80;99.90;;;-143.32;42.44;53366.06;6154303;23;20545;-90
2021/05/28 17:21:07;;;;;;;2.63;2.43;;;17.70;99.90;;;-143.32;42.73;53349.91;6157839;23;20406;-90
2021/05/28 17:23:35;;;;;;;2.67;2.00;;;17.80;99.90;;;-143.32;44.60;53321.63;6157998;23;20410;-93
2021/05/28 17:26:01;;;;;;;1.97;1.83;;;17.80;99.90;;;-143.32;42.72;53360.00;6156893;23;20422;-94
2021/05/28 17:28:31;;;;;;;3.53;2.00;;;17.90;99.90;;;-143.32;42.36;53349.91;6160687;23;20734;-93
2021/05/28 17:30:59;;;;;;;4.03;2.67;;;17.70;99.90;;;-143.32;44.48;53319.59;6165586;23;20399;-91
2021/05/28 17:33:26;;;;;;;2.27;2.07;;;17.70;99.90;;;-143.32;43.20;53339.81;6157868;23;20402;-93
2021/05/28 17:35:53;;;;;;;4.43;2.43;;;17.70;99.90;;;-143.32;45.07;53341.81;6157258;23;20897;-93
2021/05/28 17:38:20;;;;;;;1.53;1.43;;;17.70;99.90;;;-143.32;42.44;53406.47;6159579;23;20530;-92
2021/05/28 17:40:47;;;;;;;2.50;1.73;;;17.70;99.90;;;-143.32;42.74;53392.31;6160505;23;20758;-93
2021/05/28 17:43:29;;;;;;;1.50;1.40;;;17.70;99.90;;;-143.32;42.36;53406.47;6159433;23;20417;-92
2021/05/28 17:45:58;;;;;;;5.03;1.63;;;17.70;99.90;;;-143.32;42.44;53398.38;6158759;23;20759;-92
2021/05/28 17:48:28;;;;;;;1.90;1.80;;;17.60;99.90;;;-143.32;42.64;53434.72;6156965;23;20450;-93
2021/05/28 17:50:55;;;;;;;2.90;1.70;;;17.60;99.90;;;-143.32;42.97;53398.38;6159169;23;20410;-91
2021/05/28 17:53:22;;;;;;;1.70;1.60;;;17.60;99.90;;;-143.32;42.52;53410.50;6159687;23;20403;-92
2021/05/28 17:55:49;;;;;;;5.00;1.90;;;17.60;99.90;;;-143.32;42.22;53436.75;6157423;23;20418;-93
2021/05/28 17:58:24;;;;;;;2.70;1.97;;;17.60;99.90;;;-143.32;42.91;53410.50;6157397;23;20972;-91
2021/05/28 18:00:51;;;;;;;2.03;1.83;;;17.60;99.90;;;-143.32;43.51;53410.50;6157624;23;20390;-91
2021/05/28 18:03:18;;;;;;;3.63;1.90;;;17.60;99.90;;;-143.32;43.64;53353.94;6156524;23;20438;-90
2021/05/28 18:05:49;;;;;;;4.23;2.10;;;17.50;99.90;;;-143.32;44.65;53420.59;6156884;23;20407;-93
2021/05/28 18:08:17;;;;;;;1.77;1.67;;;17.20;99.90;;;-143.32;44.31;53422.63;6159063;23;20399;-93
2021/05/28 18:10:46;;;;;;;5.60;2.07;;;17.50;99.90;;;-143.32;46.25;53390.31;6158246;23;20401;-92
2021/05/28 19:50:03;;;;;;;4.43;3.23;;;14.90;1.00;;;-143.32;70.83;53507.44;5927077;24;20399;-89
